sensor_id;sensor_type;location;lat;lon;timestamp;P1;durP1;ratioP1;P2;durP2;ratioP2
69305;SDS011;56427;51.580;4.656;2023-04-01T00:01:09;19.85;;;6.75;;
69305;SDS011;56427;51.580;4.656;2023-04-01T00:03:37;15.05;;;5.60;;
69305;SDS011;56427;51.580;4.656;2023-04-01T00:06:02;14.10;;;6.25;;
69305;SDS011;56427;51.580;4.656;2023-04-01T00:08:28;14.67;;;5.20;;
69305;SDS011;56427;51.580;4.656;2023-04-01T00:10:53;9.63;;;4.93;;
69305;SDS011;56427;51.580;4.656;2023-04-01T00:13:19;15.20;;;4.37;;
69305;SDS011;56427;51.580;4.656;2023-04-01T00:15:45;14.32;;;4.35;;
69305;SDS011;56427;51.580;4.656;2023-04-01T00:18:11;10.98;;;4.10;;
69305;SDS011;56427;51.580;4.656;2023-04-01T00:20:38;11.50;;;4.00;;
69305;SDS011;56427;51.580;4.656;2023-04-01T00:23:04;13.18;;;4.03;;
69305;SDS011;56427;51.580;4.656;2023-04-01T00:25:30;11.32;;;4.32;;
69305;SDS011;56427;51.580;4.656;2023-04-01T00:27:55;17.67;;;4.40;;
69305;SDS011;56427;51.580;4.656;2023-04-01T00:30:21;12.43;;;4.20;;
69305;SDS011;56427;51.580;4.656;2023-04-01T00:32:46;12.60;;;5.13;;
69305;SDS011;56427;51.580;4.656;2023-04-01T00:35:12;13.77;;;4.40;;
69305;SDS011;56427;51.580;4.656;2023-04-01T00:37:37;9.83;;;4.20;;
69305;SDS011;56427;51.580;4.656;2023-04-01T00:40:05;11.68;;;3.67;;
69305;SDS011;56427;51.580;4.656;2023-04-01T00:42:31;15.48;;;4.55;;
69305;SDS011;56427;51.580;4.656;2023-04-01T00:44:57;14.60;;;4.47;;
69305;SDS011;56427;51.580;4.656;2023-04-01T00:47:23;10.52;;;3.72;;
69305;SDS011;56427;51.580;4.656;2023-04-01T00:49:52;11.40;;;3.67;;
69305;SDS011;56427;51.580;4.656;2023-04-01T00:52:20;9.63;;;4.22;;
69305;SDS011;56427;51.580;4.656;2023-04-01T00:54:48;13.45;;;4.30;;
69305;SDS011;56427;51.580;4.656;2023-04-01T00:57:50;14.50;;;4.43;;
69305;SDS011;56427;51.580;4.656;2023-04-01T01:00:11;10.30;;;3.92;;
69305;SDS011;56427;51.580;4.656;2023-04-01T01:02:38;13.07;;;4.00;;
69305;SDS011;56427;51.580;4.656;2023-04-01T01:05:07;8.40;;;3.85;;
69305;SDS011;56427;51.580;4.656;2023-04-01T01:07:45;9.85;;;4.30;;
69305;SDS011;56427;51.580;4.656;2023-04-01T01:10:18;13.82;;;4.55;;
69305;SDS011;56427;51.580;4.656;2023-04-01T01:15:25;15.68;;;5.28;;
69305;SDS011;56427;51.580;4.656;2023-04-01T01:23:42;22.33;;;5.50;;
69305;SDS011;56427;51.580;4.656;2023-04-01T01:26:42;24.75;;;5.63;;
69305;SDS011;56427;51.580;4.656;2023-04-01T01:31:59;17.52;;;5.07;;
69305;SDS011;56427;51.580;4.656;2023-04-01T01:37:49;19.02;;;4.90;;
69305;SDS011;56427;51.580;4.656;2023-04-01T01:40:18;15.60;;;5.05;;
69305;SDS011;56427;51.580;4.656;2023-04-01T01:42:47;18.80;;;5.35;;
69305;SDS011;56427;51.580;4.656;2023-04-01T01:45:16;17.23;;;4.82;;
69305;SDS011;56427;51.580;4.656;2023-04-01T01:47:45;18.73;;;5.20;;
69305;SDS011;56427;51.580;4.656;2023-04-01T01:50:14;16.90;;;4.88;;
69305;SDS011;56427;51.580;4.656;2023-04-01T01:52:40;19.98;;;5.15;;
69305;SDS011;56427;51.580;4.656;2023-04-01T01:55:22;20.83;;;6.07;;
69305;SDS011;56427;51.580;4.656;2023-04-01T01:57:53;14.90;;;4.50;;
69305;SDS011;56427;51.580;4.656;2023-04-01T02:00:23;12.65;;;3.83;;
69305;SDS011;56427;51.580;4.656;2023-04-01T02:02:49;12.30;;;4.23;;
69305;SDS011;56427;51.580;4.656;2023-04-01T02:05:19;12.05;;;3.70;;
69305;SDS011;56427;51.580;4.656;2023-04-01T02:10:52;9.88;;;4.13;;
69305;SDS011;56427;51.580;4.656;2023-04-01T02:13:28;11.50;;;4.15;;
69305;SDS011;56427;51.580;4.656;2023-04-01T02:16:20;11.80;;;4.82;;
69305;SDS011;56427;51.580;4.656;2023-04-01T02:18:54;10.80;;;4.18;;
69305;SDS011;56427;51.580;4.656;2023-04-01T02:21:23;11.73;;;5.40;;
69305;SDS011;56427;51.580;4.656;2023-04-01T02:23:51;11.85;;;5.82;;
69305;SDS011;56427;51.580;4.656;2023-04-01T02:26:18;17.40;;;6.70;;
69305;SDS011;56427;51.580;4.656;2023-04-01T02:28:45;14.05;;;6.60;;
69305;SDS011;56427;51.580;4.656;2023-04-01T02:31:14;15.07;;;6.97;;
69305;SDS011;56427;51.580;4.656;2023-04-01T02:33:40;13.85;;;6.80;;
69305;SDS011;56427;51.580;4.656;2023-04-01T02:36:09;17.15;;;7.45;;
69305;SDS011;56427;51.580;4.656;2023-04-01T02:38:38;14.70;;;7.00;;
69305;SDS011;56427;51.580;4.656;2023-04-01T02:41:04;16.45;;;6.90;;
69305;SDS011;56427;51.580;4.656;2023-04-01T02:43:31;15.43;;;6.68;;
69305;SDS011;56427;51.580;4.656;2023-04-01T02:45:56;16.95;;;6.53;;
69305;SDS011;56427;51.580;4.656;2023-04-01T02:48:22;21.08;;;7.68;;
69305;SDS011;56427;51.580;4.656;2023-04-01T02:50:47;22.07;;;8.30;;
69305;SDS011;56427;51.580;4.656;2023-04-01T02:53:12;18.57;;;7.73;;
69305;SDS011;56427;51.580;4.656;2023-04-01T02:55:38;19.93;;;7.27;;
69305;SDS011;56427;51.580;4.656;2023-04-01T02:58:03;15.90;;;7.70;;
69305;SDS011;56427;51.580;4.656;2023-04-01T03:00:29;19.73;;;9.23;;
69305;SDS011;56427;51.580;4.656;2023-04-01T03:02:54;23.60;;;8.73;;
69305;SDS011;56427;51.580;4.656;2023-04-01T03:05:21;24.48;;;9.27;;
69305;SDS011;56427;51.580;4.656;2023-04-01T03:07:47;25.83;;;9.38;;
69305;SDS011;56427;51.580;4.656;2023-04-01T03:10:13;22.93;;;9.40;;
69305;SDS011;56427;51.580;4.656;2023-04-01T03:12:38;26.45;;;9.23;;
69305;SDS011;56427;51.580;4.656;2023-04-01T03:15:04;23.27;;;9.23;;
69305;SDS011;56427;51.580;4.656;2023-04-01T03:17:30;23.50;;;9.55;;
69305;SDS011;56427;51.580;4.656;2023-04-01T03:19:56;32.13;;;10.70;;
69305;SDS011;56427;51.580;4.656;2023-04-01T03:22:21;27.20;;;9.27;;
69305;SDS011;56427;51.580;4.656;2023-04-01T03:24:47;27.20;;;8.77;;
69305;SDS011;56427;51.580;4.656;2023-04-01T03:27:13;29.98;;;9.93;;
69305;SDS011;56427;51.580;4.656;2023-04-01T03:29:38;21.93;;;8.60;;
69305;SDS011;56427;51.580;4.656;2023-04-01T03:32:04;28.57;;;8.47;;
69305;SDS011;56427;51.580;4.656;2023-04-01T03:34:30;25.25;;;9.20;;
69305;SDS011;56427;51.580;4.656;2023-04-01T03:36:56;30.02;;;10.45;;
69305;SDS011;56427;51.580;4.656;2023-04-01T03:39:21;19.80;;;7.80;;
69305;SDS011;56427;51.580;4.656;2023-04-01T03:41:47;20.98;;;8.20;;
69305;SDS011;56427;51.580;4.656;2023-04-01T03:44:13;19.07;;;7.93;;
69305;SDS011;56427;51.580;4.656;2023-04-01T03:46:38;18.25;;;8.07;;
69305;SDS011;56427;51.580;4.656;2023-04-01T03:49:10;21.13;;;7.50;;
69305;SDS011;56427;51.580;4.656;2023-04-01T03:51:45;25.45;;;9.63;;
69305;SDS011;56427;51.580;4.656;2023-04-01T03:54:11;23.02;;;7.65;;
69305;SDS011;56427;51.580;4.656;2023-04-01T03:56:36;20.20;;;7.73;;
69305;SDS011;56427;51.580;4.656;2023-04-01T03:59:03;17.15;;;6.88;;
69305;SDS011;56427;51.580;4.656;2023-04-01T04:01:30;18.20;;;7.13;;
69305;SDS011;56427;51.580;4.656;2023-04-01T04:03:55;14.98;;;6.15;;
69305;SDS011;56427;51.580;4.656;2023-04-01T04:06:22;14.80;;;6.57;;
69305;SDS011;56427;51.580;4.656;2023-04-01T04:08:48;16.70;;;6.93;;
69305;SDS011;56427;51.580;4.656;2023-04-01T04:11:14;16.67;;;6.30;;
69305;SDS011;56427;51.580;4.656;2023-04-01T04:13:40;20.67;;;7.38;;
69305;SDS011;56427;51.580;4.656;2023-04-01T04:16:05;15.40;;;6.20;;
69305;SDS011;56427;51.580;4.656;2023-04-01T04:18:31;18.15;;;6.82;;
69305;SDS011;56427;51.580;4.656;2023-04-01T04:20:57;12.15;;;6.13;;
69305;SDS011;56427;51.580;4.656;2023-04-01T04:23:23;12.67;;;6.13;;
69305;SDS011;56427;51.580;4.656;2023-04-01T04:25:59;16.00;;;6.53;;
69305;SDS011;56427;51.580;4.656;2023-04-01T04:28:29;17.85;;;7.22;;
69305;SDS011;56427;51.580;4.656;2023-04-01T04:30:55;17.83;;;7.07;;
69305;SDS011;56427;51.580;4.656;2023-04-01T04:33:21;18.08;;;7.18;;
69305;SDS011;56427;51.580;4.656;2023-04-01T04:35:48;20.25;;;7.53;;
69305;SDS011;56427;51.580;4.656;2023-04-01T04:38:14;17.88;;;7.72;;
69305;SDS011;56427;51.580;4.656;2023-04-01T04:40:40;18.13;;;7.30;;
69305;SDS011;56427;51.580;4.656;2023-04-01T04:43:06;14.57;;;6.43;;
69305;SDS011;56427;51.580;4.656;2023-04-01T04:45:32;17.10;;;6.70;;
69305;SDS011;56427;51.580;4.656;2023-04-01T04:47:58;16.38;;;7.50;;
69305;SDS011;56427;51.580;4.656;2023-04-01T04:50:24;21.73;;;7.53;;
69305;SDS011;56427;51.580;4.656;2023-04-01T04:52:50;24.17;;;7.13;;
69305;SDS011;56427;51.580;4.656;2023-04-01T04:55:16;20.33;;;7.93;;
69305;SDS011;56427;51.580;4.656;2023-04-01T04:57:41;19.47;;;7.83;;
69305;SDS011;56427;51.580;4.656;2023-04-01T05:00:07;20.00;;;8.07;;
69305;SDS011;56427;51.580;4.656;2023-04-01T05:02:34;17.35;;;6.90;;
69305;SDS011;56427;51.580;4.656;2023-04-01T05:05:00;18.70;;;7.13;;
69305;SDS011;56427;51.580;4.656;2023-04-01T05:07:26;21.07;;;6.77;;
69305;SDS011;56427;51.580;4.656;2023-04-01T05:09:51;18.10;;;7.07;;
69305;SDS011;56427;51.580;4.656;2023-04-01T05:12:17;18.03;;;7.90;;
69305;SDS011;56427;51.580;4.656;2023-04-01T05:14:42;18.58;;;7.68;;
69305;SDS011;56427;51.580;4.656;2023-04-01T05:17:11;20.33;;;7.67;;
69305;SDS011;56427;51.580;4.656;2023-04-01T05:19:37;21.95;;;8.68;;
69305;SDS011;56427;51.580;4.656;2023-04-01T05:22:04;19.58;;;8.50;;
69305;SDS011;56427;51.580;4.656;2023-04-01T05:24:30;27.70;;;10.40;;
69305;SDS011;56427;51.580;4.656;2023-04-01T05:26:56;27.00;;;9.90;;
69305;SDS011;56427;51.580;4.656;2023-04-01T05:29:22;30.60;;;11.00;;
69305;SDS011;56427;51.580;4.656;2023-04-01T05:31:48;35.63;;;10.70;;
69305;SDS011;56427;51.580;4.656;2023-04-01T05:34:13;23.67;;;9.47;;
69305;SDS011;56427;51.580;4.656;2023-04-01T05:36:39;27.17;;;10.68;;
69305;SDS011;56427;51.580;4.656;2023-04-01T05:39:06;24.65;;;11.75;;
69305;SDS011;56427;51.580;4.656;2023-04-01T05:41:34;26.63;;;11.13;;
69305;SDS011;56427;51.580;4.656;2023-04-01T05:44:00;27.95;;;11.70;;
69305;SDS011;56427;51.580;4.656;2023-04-01T05:46:26;27.17;;;12.37;;
69305;SDS011;56427;51.580;4.656;2023-04-01T05:48:51;31.63;;;11.87;;
69305;SDS011;56427;51.580;4.656;2023-04-01T05:51:16;38.08;;;13.45;;
69305;SDS011;56427;51.580;4.656;2023-04-01T05:53:42;41.37;;;14.53;;
69305;SDS011;56427;51.580;4.656;2023-04-01T05:56:08;41.57;;;16.77;;
69305;SDS011;56427;51.580;4.656;2023-04-01T05:58:34;44.72;;;16.10;;
69305;SDS011;56427;51.580;4.656;2023-04-01T06:01:01;40.55;;;16.20;;
69305;SDS011;56427;51.580;4.656;2023-04-01T06:03:28;45.85;;;16.27;;
69305;SDS011;56427;51.580;4.656;2023-04-01T06:20:37;41.00;;;15.60;;
69305;SDS011;56427;51.580;4.656;2023-04-01T06:53:11;68.18;;;19.70;;
69305;SDS011;56427;51.580;4.656;2023-04-01T06:55:43;60.10;;;17.13;;
69305;SDS011;56427;51.580;4.656;2023-04-01T06:58:37;61.53;;;19.05;;
69305;SDS011;56427;51.580;4.656;2023-04-01T07:01:29;69.60;;;21.73;;
69305;SDS011;56427;51.580;4.656;2023-04-01T07:04:05;59.08;;;19.98;;
69305;SDS011;56427;51.580;4.656;2023-04-01T07:06:43;53.65;;;18.98;;
69305;SDS011;56427;51.580;4.656;2023-04-01T07:09:15;46.25;;;18.83;;
69305;SDS011;56427;51.580;4.656;2023-04-01T07:11:44;50.45;;;19.23;;
69305;SDS011;56427;51.580;4.656;2023-04-01T07:14:13;63.55;;;20.27;;
69305;SDS011;56427;51.580;4.656;2023-04-01T07:16:43;51.85;;;19.98;;
69305;SDS011;56427;51.580;4.656;2023-04-01T07:22:02;50.63;;;20.88;;
69305;SDS011;56427;51.580;4.656;2023-04-01T07:24:39;51.42;;;21.15;;
69305;SDS011;56427;51.580;4.656;2023-04-01T07:27:09;44.10;;;19.40;;
69305;SDS011;56427;51.580;4.656;2023-04-01T07:29:36;48.45;;;19.20;;
69305;SDS011;56427;51.580;4.656;2023-04-01T07:50:34;39.35;;;17.30;;
69305;SDS011;56427;51.580;4.656;2023-04-01T07:53:18;32.80;;;16.65;;
69305;SDS011;56427;51.580;4.656;2023-04-01T08:07:10;37.60;;;15.52;;
69305;SDS011;56427;51.580;4.656;2023-04-01T08:15:26;33.67;;;14.32;;
69305;SDS011;56427;51.580;4.656;2023-04-01T08:20:40;33.95;;;14.48;;
69305;SDS011;56427;51.580;4.656;2023-04-01T08:23:16;35.55;;;13.98;;
69305;SDS011;56427;51.580;4.656;2023-04-01T08:25:58;37.13;;;16.10;;
69305;SDS011;56427;51.580;4.656;2023-04-01T08:28:37;30.73;;;14.68;;
69305;SDS011;56427;51.580;4.656;2023-04-01T08:31:13;33.67;;;14.20;;
69305;SDS011;56427;51.580;4.656;2023-04-01T08:33:46;34.90;;;14.48;;
69305;SDS011;56427;51.580;4.656;2023-04-01T08:38:47;34.17;;;14.18;;
69305;SDS011;56427;51.580;4.656;2023-04-01T08:41:25;27.35;;;12.45;;
69305;SDS011;56427;51.580;4.656;2023-04-01T08:49:47;40.28;;;16.58;;
69305;SDS011;56427;51.580;4.656;2023-04-01T08:52:36;34.28;;;15.23;;
69305;SDS011;56427;51.580;4.656;2023-04-01T08:55:22;43.20;;;17.95;;
69305;SDS011;56427;51.580;4.656;2023-04-01T08:58:06;37.70;;;15.32;;
69305;SDS011;56427;51.580;4.656;2023-04-01T09:06:24;37.67;;;15.18;;
69305;SDS011;56427;51.580;4.656;2023-04-01T09:09:21;32.92;;;14.05;;
69305;SDS011;56427;51.580;4.656;2023-04-01T09:12:11;43.22;;;16.00;;
69305;SDS011;56427;51.580;4.656;2023-04-01T09:23:02;26.38;;;11.00;;
69305;SDS011;56427;51.580;4.656;2023-04-01T09:26:26;24.40;;;10.88;;
69305;SDS011;56427;51.580;4.656;2023-04-01T09:33:53;20.48;;;9.75;;
69305;SDS011;56427;51.580;4.656;2023-04-01T09:36:38;17.63;;;8.88;;
69305;SDS011;56427;51.580;4.656;2023-04-01T09:52:44;16.10;;;7.40;;
69305;SDS011;56427;51.580;4.656;2023-04-01T10:12:12;11.88;;;6.93;;
69305;SDS011;56427;51.580;4.656;2023-04-01T10:17:55;11.23;;;5.60;;
69305;SDS011;56427;51.580;4.656;2023-04-01T10:35:14;7.40;;;3.92;;
69305;SDS011;56427;51.580;4.656;2023-04-01T11:03:24;13.40;;;6.30;;
69305;SDS011;56427;51.580;4.656;2023-04-01T11:25:02;15.70;;;7.63;;
69305;SDS011;56427;51.580;4.656;2023-04-01T11:27:36;20.55;;;7.82;;
69305;SDS011;56427;51.580;4.656;2023-04-01T11:38:40;22.98;;;9.93;;
69305;SDS011;56427;51.580;4.656;2023-04-01T11:46:33;21.25;;;9.43;;
69305;SDS011;56427;51.580;4.656;2023-04-01T11:52:01;20.95;;;9.15;;
69305;SDS011;56427;51.580;4.656;2023-04-01T12:02:52;19.13;;;8.23;;
69305;SDS011;56427;51.580;4.656;2023-04-01T12:11:33;14.33;;;5.87;;
69305;SDS011;56427;51.580;4.656;2023-04-01T12:19:48;9.63;;;4.70;;
69305;SDS011;56427;51.580;4.656;2023-04-01T12:36:40;10.70;;;5.68;;
69305;SDS011;56427;51.580;4.656;2023-04-01T12:56:09;16.05;;;6.05;;
69305;SDS011;56427;51.580;4.656;2023-04-01T12:59:05;16.27;;;7.22;;
69305;SDS011;56427;51.580;4.656;2023-04-01T13:04:31;13.35;;;6.65;;
69305;SDS011;56427;51.580;4.656;2023-04-01T13:10:21;16.35;;;7.35;;
69305;SDS011;56427;51.580;4.656;2023-04-01T13:16:16;16.17;;;8.18;;
69305;SDS011;56427;51.580;4.656;2023-04-01T13:19:16;17.92;;;7.30;;
69305;SDS011;56427;51.580;4.656;2023-04-01T13:22:09;22.00;;;8.07;;
69305;SDS011;56427;51.580;4.656;2023-04-01T13:24:40;16.35;;;6.65;;
69305;SDS011;56427;51.580;4.656;2023-04-01T13:27:34;12.40;;;6.32;;
69305;SDS011;56427;51.580;4.656;2023-04-01T13:43:58;16.77;;;6.13;;
69305;SDS011;56427;51.580;4.656;2023-04-01T14:00:20;18.85;;;6.85;;
69305;SDS011;56427;51.580;4.656;2023-04-01T14:03:21;16.73;;;6.17;;
69305;SDS011;56427;51.580;4.656;2023-04-01T14:14:21;12.95;;;6.97;;
69305;SDS011;56427;51.580;4.656;2023-04-01T14:49:43;13.00;;;5.88;;
69305;SDS011;56427;51.580;4.656;2023-04-01T14:54:46;11.90;;;6.35;;
69305;SDS011;56427;51.580;4.656;2023-04-01T14:57:15;12.47;;;6.10;;
69305;SDS011;56427;51.580;4.656;2023-04-01T15:00:00;17.83;;;7.53;;
69305;SDS011;56427;51.580;4.656;2023-04-01T15:02:54;16.83;;;8.25;;
69305;SDS011;56427;51.580;4.656;2023-04-01T15:08:14;18.73;;;10.60;;
69305;SDS011;56427;51.580;4.656;2023-04-01T15:10:48;25.07;;;12.00;;
69305;SDS011;56427;51.580;4.656;2023-04-01T15:13:16;24.90;;;12.43;;
69305;SDS011;56427;51.580;4.656;2023-04-01T15:23:45;40.90;;;18.03;;
69305;SDS011;56427;51.580;4.656;2023-04-01T15:31:28;31.38;;;16.20;;
69305;SDS011;56427;51.580;4.656;2023-04-01T15:34:09;36.17;;;18.05;;
69305;SDS011;56427;51.580;4.656;2023-04-01T15:37:01;33.13;;;17.30;;
69305;SDS011;56427;51.580;4.656;2023-04-01T15:52:23;21.10;;;12.77;;
69305;SDS011;56427;51.580;4.656;2023-04-01T15:55:16;23.52;;;13.00;;
69305;SDS011;56427;51.580;4.656;2023-04-01T16:03:48;21.30;;;12.25;;
69305;SDS011;56427;51.580;4.656;2023-04-01T16:09:39;28.58;;;14.50;;
69305;SDS011;56427;51.580;4.656;2023-04-01T16:29:04;29.17;;;14.18;;
69305;SDS011;56427;51.580;4.656;2023-04-01T16:31:55;32.38;;;14.73;;
69305;SDS011;56427;51.580;4.656;2023-04-01T16:34:27;28.30;;;14.27;;
69305;SDS011;56427;51.580;4.656;2023-04-01T16:37:21;34.55;;;15.10;;
69305;SDS011;56427;51.580;4.656;2023-04-01T16:51:32;28.65;;;13.25;;
69305;SDS011;56427;51.580;4.656;2023-04-01T16:54:11;29.00;;;12.35;;
69305;SDS011;56427;51.580;4.656;2023-04-01T16:56:45;29.85;;;14.20;;
69305;SDS011;56427;51.580;4.656;2023-04-01T16:59:17;31.15;;;14.15;;
69305;SDS011;56427;51.580;4.656;2023-04-01T17:01:53;33.92;;;14.52;;
69305;SDS011;56427;51.580;4.656;2023-04-01T17:21:02;32.78;;;13.15;;
69305;SDS011;56427;51.580;4.656;2023-04-01T17:23:46;27.42;;;11.82;;
69305;SDS011;56427;51.580;4.656;2023-04-01T17:29:13;29.27;;;11.88;;
69305;SDS011;56427;51.580;4.656;2023-04-01T17:31:46;32.92;;;13.75;;
69305;SDS011;56427;51.580;4.656;2023-04-01T17:37:03;19.63;;;10.20;;
69305;SDS011;56427;51.580;4.656;2023-04-01T17:42:15;17.08;;;10.05;;
69305;SDS011;56427;51.580;4.656;2023-04-01T17:47:39;13.95;;;8.10;;
69305;SDS011;56427;51.580;4.656;2023-04-01T17:55:25;10.02;;;5.60;;
69305;SDS011;56427;51.580;4.656;2023-04-01T18:12:32;16.05;;;8.65;;
69305;SDS011;56427;51.580;4.656;2023-04-01T18:23:09;12.10;;;7.63;;
69305;SDS011;56427;51.580;4.656;2023-04-01T18:25:50;13.73;;;7.85;;
69305;SDS011;56427;51.580;4.656;2023-04-01T18:28:40;14.98;;;8.23;;
69305;SDS011;56427;51.580;4.656;2023-04-01T18:31:15;17.37;;;8.37;;
69305;SDS011;56427;51.580;4.656;2023-04-01T18:47:43;10.32;;;6.47;;
69305;SDS011;56427;51.580;4.656;2023-04-01T18:50:28;8.75;;;5.22;;
69305;SDS011;56427;51.580;4.656;2023-04-01T18:53:15;10.05;;;5.78;;
69305;SDS011;56427;51.580;4.656;2023-04-01T18:56:00;9.18;;;5.88;;
69305;SDS011;56427;51.580;4.656;2023-04-01T18:58:36;12.63;;;7.23;;
69305;SDS011;56427;51.580;4.656;2023-04-01T19:03:57;14.73;;;7.72;;
69305;SDS011;56427;51.580;4.656;2023-04-01T19:06:31;12.40;;;7.35;;
69305;SDS011;56427;51.580;4.656;2023-04-01T19:09:09;13.02;;;7.65;;
69305;SDS011;56427;51.580;4.656;2023-04-01T19:11:45;12.03;;;7.13;;
69305;SDS011;56427;51.580;4.656;2023-04-01T19:17:50;13.98;;;6.88;;
69305;SDS011;56427;51.580;4.656;2023-04-01T19:25:51;11.17;;;6.77;;
69305;SDS011;56427;51.580;4.656;2023-04-01T19:34:24;11.52;;;6.40;;
69305;SDS011;56427;51.580;4.656;2023-04-01T19:47:11;13.32;;;7.15;;
69305;SDS011;56427;51.580;4.656;2023-04-01T19:52:27;12.88;;;7.28;;
69305;SDS011;56427;51.580;4.656;2023-04-01T20:00:05;9.60;;;5.88;;
69305;SDS011;56427;51.580;4.656;2023-04-01T20:08:12;13.65;;;8.55;;
69305;SDS011;56427;51.580;4.656;2023-04-01T20:14:53;16.02;;;9.25;;
69305;SDS011;56427;51.580;4.656;2023-04-01T20:22:02;15.98;;;10.07;;
69305;SDS011;56427;51.580;4.656;2023-04-01T20:24:42;14.23;;;9.00;;
69305;SDS011;56427;51.580;4.656;2023-04-01T20:41:02;14.30;;;8.73;;
69305;SDS011;56427;51.580;4.656;2023-04-01T20:46:33;12.48;;;8.43;;
69305;SDS011;56427;51.580;4.656;2023-04-01T20:51:59;13.77;;;7.75;;
69305;SDS011;56427;51.580;4.656;2023-04-01T20:54:42;14.38;;;8.55;;
69305;SDS011;56427;51.580;4.656;2023-04-01T20:57:24;13.38;;;8.23;;
69305;SDS011;56427;51.580;4.656;2023-04-01T21:00:11;15.55;;;9.38;;
69305;SDS011;56427;51.580;4.656;2023-04-01T21:08:40;12.32;;;8.30;;
69305;SDS011;56427;51.580;4.656;2023-04-01T21:14:31;13.30;;;8.65;;
69305;SDS011;56427;51.580;4.656;2023-04-01T21:17:17;13.15;;;8.85;;
69305;SDS011;56427;51.580;4.656;2023-04-01T21:20:06;13.18;;;8.30;;
69305;SDS011;56427;51.580;4.656;2023-04-01T21:32:57;12.82;;;8.38;;
69305;SDS011;56427;51.580;4.656;2023-04-01T21:36:07;20.05;;;9.93;;
69305;SDS011;56427;51.580;4.656;2023-04-01T22:01:49;17.65;;;11.00;;
69305;SDS011;56427;51.580;4.656;2023-04-01T22:07:29;14.10;;;8.50;;
69305;SDS011;56427;51.580;4.656;2023-04-01T22:10:20;14.52;;;9.20;;
69305;SDS011;56427;51.580;4.656;2023-04-01T22:13:09;16.83;;;10.75;;
69305;SDS011;56427;51.580;4.656;2023-04-01T22:15:48;15.68;;;10.52;;
69305;SDS011;56427;51.580;4.656;2023-04-01T22:18:34;15.33;;;9.40;;
69305;SDS011;56427;51.580;4.656;2023-04-01T22:23:47;15.75;;;9.32;;
69305;SDS011;56427;51.580;4.656;2023-04-01T22:26:45;15.75;;;9.68;;
69305;SDS011;56427;51.580;4.656;2023-04-01T22:29:30;17.63;;;11.43;;
69305;SDS011;56427;51.580;4.656;2023-04-01T22:32:03;19.33;;;11.57;;
69305;SDS011;56427;51.580;4.656;2023-04-01T22:43:07;19.38;;;11.80;;
69305;SDS011;56427;51.580;4.656;2023-04-01T22:56:05;17.95;;;11.13;;
69305;SDS011;56427;51.580;4.656;2023-04-01T22:58:38;13.75;;;8.93;;
69305;SDS011;56427;51.580;4.656;2023-04-01T23:01:12;18.65;;;11.18;;
69305;SDS011;56427;51.580;4.656;2023-04-01T23:03:44;13.98;;;8.95;;
69305;SDS011;56427;51.580;4.656;2023-04-01T23:06:46;15.00;;;7.93;;
69305;SDS011;56427;51.580;4.656;2023-04-01T23:09:23;9.88;;;6.32;;
69305;SDS011;56427;51.580;4.656;2023-04-01T23:11:56;11.23;;;6.70;;
69305;SDS011;56427;51.580;4.656;2023-04-01T23:14:30;12.52;;;7.35;;
69305;SDS011;56427;51.580;4.656;2023-04-01T23:27:55;12.18;;;6.93;;
69305;SDS011;56427;51.580;4.656;2023-04-01T23:30:47;15.15;;;7.80;;
69305;SDS011;56427;51.580;4.656;2023-04-01T23:35:51;17.45;;;9.68;;
69305;SDS011;56427;51.580;4.656;2023-04-01T23:38:21;13.77;;;8.27;;
69305;SDS011;56427;51.580;4.656;2023-04-01T23:40:49;17.02;;;9.65;;
69305;SDS011;56427;51.580;4.656;2023-04-01T23:43:27;16.00;;;9.38;;
69305;SDS011;56427;51.580;4.656;2023-04-01T23:45:57;18.40;;;10.32;;
69305;SDS011;56427;51.580;4.656;2023-04-01T23:48:46;14.23;;;7.95;;
69305;SDS011;56427;51.580;4.656;2023-04-01T23:51:27;13.32;;;7.57;;
69305;SDS011;56427;51.580;4.656;2023-04-01T23:54:10;14.65;;;8.88;;
69305;SDS011;56427;51.580;4.656;2023-04-01T23:56:42;13.88;;;8.93;;
69305;SDS011;56427;51.580;4.656;2023-04-01T23:59:15;16.20;;;10.07;;
